Portada
METAR-TAF:

METAR-TAF

Aeroports :

Kinshasa, Congo

latitud: 04-23S, longitud: 015-26E, altitud: 309 m

Observació

L'informe es va fer fa 42 minuts, a les 02:00 UTC
Vent 6 kt del Oest
Temperatura 24°C
Humitat 83%
Pressió 1014 hPa
Visibilitat: 6000 m
Escasses núvols a una alçada de 1600 ft

METAR: FZAA 220200Z 27006KT 6000 FEW016 24/21 Q1014 NOSIG

Hora: 03:42 (02:42 UTC)

Pronòstic

L'informe es va fer fa 3 hores i 42 minuts, a les 23:00 UTC
Pronòstic vàlid del 22 a les 00 UTC al 23 a les 06 UTC
Vent 4 kt del Oest/Sud-Oest
Visibilitat: 6000 m
Escasses núvols a una alçada de 1800 ft
Probabilitat 30%
l' 22 a les 06 UTC al 22 a les 08 UTC
Visibilitat: 4000 m
Cel ennuvolat a una alçada de 1500 ft
boirina
Evolucionant progressivament
l' 22 a les 10 UTC al 22 a les 12 UTC
Vent 10 kt del Nord-Oest
Núvols disperses a una alçada de 2000 ft

TAF: FZAA 212300Z 2200/2306 24004KT 6000 FEW018 PROB30 2206/2208 4000 BR BKN015 BECMG 2210/2212 32010KT SCT020

Observacions i pronòstics meteorològics de més de 4000 aeroports (METAR i TAF).

Les estacions disponibles són els punts grocs i vermells al mapa.

Posi el ratolí al punt desitjat per veure el nom de l'estació.

Feu clic per veure les observacions i els pronòstics meteorològics.

Per canviar el mapa: feu clic els botons verds amb una creu de color negre per apropar; al botó verd amb un guió per allunyar la imatge; o en les fletxes verdes per a mapes adjacents.


METAR-TAF: